Time;durP1;ratioP1;P1;durP2;ratioP2;P2;SDS_P1;SDS_P2;PMS_P1;PMS_P2;Temp;Humidity;BMP_temperature;BMP_pressure;BME280_temperature;BME280_humidity;BME280_pressure;Samples;Min_cycle;Max_cycle;Signal;HPM_P1;HPM_P2
2022/12/12 00:02:25;;;;;;;37.40;21.10;;;;;;;3.04;53.03;96760.00;5070368;28;20604;-69
2022/12/12 00:04:50;;;;;;;37.40;21.20;;;;;;;3.05;53.16;96759.91;5061704;28;20186;-70
2022/12/12 00:07:16;;;;;;;35.03;20.47;;;;;;;3.09;53.38;96763.06;5053379;28;20204;-70
2022/12/12 00:09:41;;;;;;;37.00;20.50;;;;;;;3.10;53.05;96754.38;5057430;28;20264;-69
2022/12/12 00:12:07;;;;;;;36.00;20.40;;;;;;;3.14;52.92;96766.16;5054366;28;20175;-70
2022/12/12 00:14:33;;;;;;;33.30;19.33;;;;;;;3.19;52.86;96756.25;5062576;28;20190;-69
2022/12/12 00:16:58;;;;;;;35.30;19.20;;;;;;;3.26;52.78;96758.38;5059625;28;20291;-70
2022/12/12 00:19:23;;;;;;;32.43;19.23;;;;;;;3.18;52.88;96756.38;5064251;28;20190;-70
2022/12/12 00:21:49;;;;;;;32.17;18.50;;;;;;;3.16;52.96;96756.47;5047499;28;20187;-69
2022/12/12 00:24:14;;;;;;;35.67;20.00;;;;;;;3.19;52.86;96753.66;5060555;28;20282;-70
2022/12/12 00:26:40;;;;;;;34.27;18.97;;;;;;;3.21;52.98;96756.16;5064139;28;20664;-70
2022/12/12 00:29:06;;;;;;;34.00;19.33;;;;;;;3.26;52.57;96760.97;5058882;28;20219;-69
2022/12/12 00:31:31;;;;;;;34.60;18.67;;;;;;;3.24;52.51;96761.06;5062442;28;20213;-69
2022/12/12 00:33:57;;;;;;;37.30;20.93;;;;;;;3.23;53.22;96760.25;5059258;28;20213;-69
2022/12/12 00:36:26;;;;;;;42.97;21.20;;;;;;;3.10;53.54;96758.72;5056583;28;20237;-70
2022/12/12 00:38:52;;;;;;;34.73;19.80;;;;;;;3.05;53.91;96762.50;5060375;28;20187;-70
2022/12/12 00:41:17;;;;;;;39.17;19.67;;;;;;;2.99;54.39;96767.31;5062150;28;21032;-70
2022/12/12 00:43:43;;;;;;;38.40;21.10;;;;;;;2.82;54.88;96766.78;5055439;28;20447;-69
2022/12/12 00:46:13;;;;;;;34.50;19.87;;;;;;;2.72;55.33;96765.84;5057353;28;20182;-69
2022/12/12 00:48:38;;;;;;;40.63;21.20;;;;;;;2.75;55.32;96769.00;5061105;28;20182;-70
2022/12/12 00:51:09;;;;;;;39.17;21.10;;;;;;;2.72;55.42;96771.00;5054166;28;20425;-70
2022/12/12 00:53:36;;;;;;;37.13;20.00;;;;;;;2.59;55.95;96761.56;5048743;28;20256;-69
2022/12/12 00:56:01;;;;;;;38.00;19.90;;;;;;;2.52;56.04;96768.13;5059671;28;20449;-70
2022/12/12 00:58:26;;;;;;;37.20;21.00;;;;;;;2.59;55.76;96769.34;5057920;28;20419;-71
2022/12/12 01:00:52;;;;;;;32.50;19.20;;;;;;;2.77;55.54;96758.56;5064491;28;20785;-68
2022/12/12 01:03:18;;;;;;;32.37;19.40;;;;;;;2.85;54.90;96761.41;5056312;28;20198;-69
2022/12/12 01:05:44;;;;;;;34.10;19.57;;;;;;;2.75;55.69;96770.78;5062732;28;20178;-70
2022/12/12 01:08:09;;;;;;;31.77;18.90;;;;;;;2.59;55.62;96765.91;5057137;28;20175;-69
2022/12/12 01:10:35;;;;;;;35.37;19.40;;;;;;;2.47;55.96;96757.31;5055940;28;20198;-69
2022/12/12 01:13:00;;;;;;;35.13;20.17;;;;;;;2.54;55.98;96758.47;5055930;28;20213;-70
2022/12/12 01:15:26;;;;;;;34.33;19.53;;;;;;;2.65;55.74;96764.66;5064383;28;20194;-70
2022/12/12 01:17:52;;;;;;;34.50;19.47;;;;;;;2.71;55.11;96769.38;5061126;28;20185;-69
2022/12/12 01:20:24;;;;;;;32.90;20.00;;;;;;;2.65;55.57;96765.47;5062864;28;20183;-70
2022/12/12 01:22:49;;;;;;;35.67;19.97;;;;;;;2.72;55.22;96771.81;5038556;28;20449;-70
2022/12/12 01:25:16;;;;;;;34.47;19.20;;;;;;;2.71;55.22;96770.16;5053609;28;20830;-70
2022/12/12 01:27:41;;;;;;;34.80;19.73;;;;;;;2.54;55.41;96774.00;5055520;28;20216;-70
2022/12/12 01:30:13;;;;;;;33.37;19.37;;;;;;;2.57;55.80;96772.97;5052410;28;20521;-70
2022/12/12 01:32:39;;;;;;;45.03;20.37;;;;;;;2.55;55.99;96770.47;5059131;28;20574;-70
2022/12/12 01:35:07;;;;;;;35.70;20.00;;;;;;;2.46;55.49;96771.97;5055888;28;20422;-70
2022/12/12 01:37:34;;;;;;;38.10;21.90;;;;;;;2.39;56.02;96772.56;5042775;28;20290;-69
2022/12/12 01:40:00;;;;;;;40.63;22.60;;;;;;;2.51;55.79;96769.09;5054709;28;20425;-71
2022/12/12 01:42:26;;;;;;;36.90;20.27;;;;;;;2.63;55.45;96777.69;5058421;28;20421;-70
2022/12/12 01:44:52;;;;;;;34.57;20.00;;;;;;;2.61;54.85;96774.38;5061356;28;20197;-70
2022/12/12 01:47:20;;;;;;;43.67;19.73;;;;;;;2.53;55.24;96771.53;5054989;28;20471;-69
2022/12/12 01:49:51;;;;;;;43.13;21.57;;;;;;;2.45;55.53;96772.09;5059758;28;20859;-69
2022/12/12 01:52:19;;;;;;;45.23;22.27;;;;;;;2.43;55.10;96779.97;5048600;28;20425;-70
2022/12/12 01:54:48;;;;;;;52.50;24.23;;;;;;;2.54;55.38;96773.19;5057538;28;20491;-69
2022/12/12 01:57:21;;;;;;;46.23;22.53;;;;;;;2.60;54.73;96773.56;5061278;28;20523;-70
2022/12/12 01:59:46;;;;;;;41.03;21.13;;;;;;;2.52;54.58;96777.66;5063818;28;20516;-69
2022/12/12 02:02:12;;;;;;;42.60;21.73;;;;;;;2.52;54.85;96785.41;5066905;28;20854;-69
2022/12/12 02:04:37;;;;;;;39.00;21.33;;;;;;;2.54;54.76;96779.19;5062562;28;20618;-69
2022/12/12 02:07:03;;;;;;;37.80;20.30;;;;;;;2.44;54.27;96771.28;5057499;28;20657;-70
2022/12/12 02:09:29;;;;;;;36.63;19.73;;;;;;;2.29;54.76;96774.97;5057906;28;20641;-70
2022/12/12 02:11:56;;;;;;;37.13;20.70;;;;;;;2.34;54.70;96775.47;5057728;28;20233;-71
2022/12/12 02:14:25;;;;;;;36.33;18.87;;;;;;;2.34;54.42;96772.88;5063700;28;20241;-70
2022/12/12 02:16:58;;;;;;;33.93;18.80;;;;;;;2.39;54.70;96785.50;5060789;28;20544;-69
2022/12/12 02:20:01;;;;;;;40.47;18.60;;;;;;;2.24;54.72;96788.25;5063074;28;20432;-71
2022/12/12 02:22:42;;;;;;;67.33;24.73;;;;;;;2.26;54.21;96781.22;5066357;28;20750;-70
2022/12/12 02:25:29;;;;;;;56.37;23.37;;;;;;;2.24;54.43;96784.81;5048176;28;20417;-70
2022/12/12 02:28:16;;;;;;;48.13;21.53;;;;;;;2.20;54.66;96784.22;5065401;28;20411;-70
2022/12/12 02:31:18;;;;;;;41.23;20.80;;;;;;;2.09;54.58;96781.59;5053746;28;20421;-69
2022/12/12 02:33:43;;;;;;;37.80;20.00;;;;;;;1.99;54.43;96787.41;5053064;28;20448;-71
2022/12/12 02:36:31;;;;;;;39.67;19.40;;;;;;;1.97;55.04;96785.84;5052328;28;20453;-69
2022/12/12 02:39:03;;;;;;;33.53;18.03;;;;;;;2.00;54.79;96790.81;5061529;28;20223;-70
2022/12/12 02:41:38;;;;;;;36.53;20.23;;;;;;;1.85;54.69;96790.16;5057262;28;20420;-70
2022/12/12 02:44:18;;;;;;;36.27;19.07;;;;;;;1.82;54.86;96777.44;5062106;28;20531;-70
2022/12/12 02:47:32;;;;;;;36.67;19.30;;;;;;;1.71;55.05;96779.94;5064135;28;20439;-70
2022/12/12 02:50:04;;;;;;;37.83;19.73;;;;;;;1.58;54.96;96793.72;5041185;28;20960;-71
2022/12/12 02:52:30;;;;;;;36.07;19.00;;;;;;;1.73;54.98;96798.75;5065727;28;20425;-72
2022/12/12 02:54:58;;;;;;;34.70;17.17;;;;;;;1.81;54.66;96806.78;5059582;28;20429;-70
2022/12/12 02:57:25;;;;;;;36.37;19.20;;;;;;;1.87;53.85;96801.22;5067305;28;20484;-71
2022/12/12 02:59:55;;;;;;;33.30;17.60;;;;;;;1.85;53.71;96797.91;5064136;28;20426;-70
2022/12/12 03:02:23;;;;;;;33.83;18.03;;;;;;;1.78;53.79;96794.91;5069422;28;20529;-70
2022/12/12 03:08:32;;;;;;;34.17;17.87;;;;;;;1.40;54.49;96795.81;5051840;28;20420;-69
2022/12/12 03:11:01;;;;;;;33.80;18.37;;;;;;;1.40;54.87;96792.41;5060283;28;20411;-70
2022/12/12 03:13:41;;;;;;;36.33;20.17;;;;;;;1.55;54.53;96793.94;5055581;28;20456;-70
2022/12/12 03:16:22;;;;;;;32.27;17.77;;;;;;;1.67;54.01;96792.25;5063901;28;20455;-70
2022/12/12 03:19:08;;;;;;;35.30;18.53;;;;;;;1.58;53.38;96796.31;5063976;28;20416;-71
2022/12/12 03:21:53;;;;;;;33.93;17.00;;;;;;;1.61;53.89;96790.09;5062386;28;20409;-71
2022/12/12 03:24:37;;;;;;;31.60;17.77;;;;;;;1.54;53.47;96800.03;5063898;28;20470;-69
2022/12/12 03:27:22;;;;;;;32.57;17.97;;;;;;;1.49;53.66;96802.94;5069764;28;20416;-71
2022/12/12 03:29:58;;;;;;;33.20;17.87;;;;;;;1.57;53.34;96806.75;5057787;28;20470;-72
2022/12/12 03:32:40;;;;;;;35.03;18.60;;;;;;;1.48;53.58;96803.03;5065184;28;20453;-69
2022/12/12 03:35:11;;;;;;;31.07;17.30;;;;;;;1.37;53.82;96799.44;5052852;28;20425;-68
2022/12/12 03:37:41;;;;;;;36.90;18.30;;;;;;;1.41;53.46;96799.22;5066748;28;20858;-68
2022/12/12 03:40:26;;;;;;;33.87;18.50;;;;;;;1.42;53.60;96799.13;5055624;28;20438;-68
2022/12/12 03:42:59;;;;;;;28.37;17.03;;;;;;;1.40;53.07;96802.72;5064583;28;20797;-69
2022/12/12 03:45:34;;;;;;;33.63;16.90;;;;;;;1.30;53.38;96800.78;5061926;28;20449;-70
2022/12/12 03:48:12;;;;;;;29.13;16.30;;;;;;;1.21;53.93;96796.25;5059628;28;20436;-70
2022/12/12 03:50:44;;;;;;;31.30;17.47;;;;;;;1.27;53.79;96805.31;5049212;28;20778;-68
2022/12/12 03:53:34;;;;;;;30.47;16.23;;;;;;;1.19;53.76;96800.69;5050753;28;20449;-69
2022/12/12 03:56:17;;;;;;;30.20;16.07;;;;;;;1.18;53.96;96804.19;5068977;28;21183;-68
2022/12/12 03:58:51;;;;;;;33.60;17.47;;;;;;;1.03;53.92;96812.03;5056805;28;20420;-68
2022/12/12 04:01:18;;;;;;;31.13;17.70;;;;;;;1.05;53.98;96815.34;5059879;28;20824;-69
2022/12/12 04:03:49;;;;;;;35.57;16.50;;;;;;;1.00;53.77;96812.25;5071498;28;20939;-68
2022/12/12 04:06:53;;;;;;;29.43;17.00;;;;;;;0.91;54.07;96815.44;5069781;28;20477;-68
2022/12/12 04:15:16;;;;;;;36.57;18.10;;;;;;;0.91;53.80;96810.25;5066064;28;20832;-69
2022/12/12 04:17:50;;;;;;;40.00;19.37;;;;;;;0.94;53.56;96817.81;5060048;28;20433;-68
2022/12/12 04:23:31;;;;;;;33.97;17.90;;;;;;;0.94;53.32;96822.97;5068382;28;20444;-68
2022/12/12 04:26:39;;;;;;;32.50;18.10;;;;;;;0.88;53.50;96816.47;5068608;28;20777;-68
2022/12/12 04:29:28;;;;;;;30.13;17.67;;;;;;;0.89;53.72;96825.00;4991026;28;20690;-69
2022/12/12 04:31:58;;;;;;;30.63;17.30;;;;;;;0.91;53.35;96818.00;4984079;28;20474;-69
2022/12/12 04:34:47;;;;;;;30.27;16.80;;;;;;;0.70;53.82;96823.66;5028435;28;20830;-68
2022/12/12 04:37:16;;;;;;;29.13;16.20;;;;;;;0.86;53.33;96825.25;5061827;28;20975;-68
2022/12/12 04:39:43;;;;;;;30.50;16.20;;;;;;;0.74;53.86;96827.69;5057862;28;20467;-68
2022/12/12 04:42:11;;;;;;;27.40;15.90;;;;;;;0.78;53.17;96833.47;5052485;28;20851;-68
2022/12/12 04:44:39;;;;;;;27.50;16.20;;;;;;;0.72;53.24;96833.88;5054691;28;20440;-68
2022/12/12 04:47:05;;;;;;;28.57;16.70;;;;;;;0.74;53.25;96837.19;5051992;28;20430;-67
2022/12/12 04:49:32;;;;;;;30.20;17.40;;;;;;;0.75;53.02;96831.09;5041413;28;20493;-69
2022/12/12 04:52:04;;;;;;;35.10;17.17;;;;;;;0.61;53.69;96843.13;5053996;28;20511;-69
2022/12/12 04:54:38;;;;;;;28.13;15.80;;;;;;;0.67;53.39;96831.59;5060198;28;20435;-69
2022/12/12 04:57:07;;;;;;;29.90;17.53;;;;;;;0.73;53.83;96838.94;5061705;28;20465;-69
2022/12/12 04:59:33;;;;;;;28.70;17.20;;;;;;;0.79;53.56;96839.44;5069568;28;20424;-69
2022/12/12 05:02:03;;;;;;;32.43;16.73;;;;;;;0.81;53.58;96835.88;5061482;28;20926;-68
2022/12/12 05:04:46;;;;;;;30.33;16.60;;;;;;;0.75;53.63;96839.69;5067697;28;20202;-70
2022/12/12 05:07:21;;;;;;;32.50;17.20;;;;;;;0.81;53.45;96843.59;5060926;28;20420;-69
2022/12/12 05:09:47;;;;;;;34.83;18.20;;;;;;;0.83;53.74;96840.91;5045930;28;20435;-70
2022/12/12 05:12:15;;;;;;;39.53;18.57;;;;;;;0.77;54.29;96840.38;5066812;28;20816;-72
2022/12/12 05:14:41;;;;;;;34.70;19.83;;;;;;;0.81;54.41;96840.19;5067174;28;20526;-70
2022/12/12 05:17:10;;;;;;;35.50;18.83;;;;;;;0.75;55.11;96842.25;5066920;28;20456;-70
2022/12/12 05:19:36;;;;;;;35.90;20.17;;;;;;;0.89;54.75;96845.66;5060288;28;20200;-70
2022/12/12 05:22:02;;;;;;;35.20;20.23;;;;;;;0.91;54.83;96849.81;5064295;28;20449;-68
2022/12/12 05:24:30;;;;;;;34.23;18.97;;;;;;;0.94;54.95;96847.97;5061247;28;20213;-69
2022/12/12 05:26:59;;;;;;;35.40;19.00;;;;;;;0.90;54.63;96857.63;5060984;28;20297;-67
2022/12/12 05:29:24;;;;;;;36.10;19.80;;;;;;;0.99;54.69;96854.47;5064253;28;20940;-68
2022/12/12 05:31:50;;;;;;;37.37;19.70;;;;;;;1.09;54.54;96851.28;5061699;28;20424;-69
2022/12/12 05:34:15;;;;;;;31.77;19.30;;;;;;;1.14;54.38;96851.78;5059399;28;20628;-69
2022/12/12 05:36:41;;;;;;;38.17;20.07;;;;;;;1.16;54.78;96852.50;5062501;28;20213;-69
2022/12/12 05:39:06;;;;;;;38.77;21.00;;;;;;;1.30;54.52;96860.16;5069418;28;20201;-69
2022/12/12 05:41:32;;;;;;;39.00;21.53;;;;;;;1.28;54.87;96851.69;5062859;28;20270;-69
2022/12/12 05:43:57;;;;;;;39.50;21.13;;;;;;;1.37;54.66;96855.41;5061689;28;20340;-69
2022/12/12 05:46:23;;;;;;;43.03;23.60;;;;;;;1.34;54.32;96851.28;5069163;28;20268;-69
2022/12/12 05:48:49;;;;;;;36.30;21.53;;;;;;;1.32;54.97;96852.34;5070185;28;20182;-69
2022/12/12 05:51:18;;;;;;;39.27;22.70;;;;;;;1.41;55.14;96850.88;5064887;28;20661;-69
2022/12/12 05:53:44;;;;;;;37.33;21.50;;;;;;;1.50;55.08;96852.84;5057672;28;21025;-70
2022/12/12 05:56:11;;;;;;;37.10;22.00;;;;;;;1.53;55.42;96850.88;5058009;28;20551;-69
2022/12/12 05:58:37;;;;;;;44.60;24.20;;;;;;;1.61;54.66;96852.09;5069957;28;20193;-68
2022/12/12 06:01:03;;;;;;;43.47;25.83;;;;;;;1.59;54.87;96854.78;5060418;28;20429;-68
2022/12/12 06:03:29;;;;;;;45.13;25.27;;;;;;;1.52;54.88;96854.38;5060133;28;20449;-69
2022/12/12 06:05:55;;;;;;;97.43;43.70;;;;;;;1.47;54.69;96861.59;5057885;28;20416;-69
2022/12/12 06:08:20;;;;;;;94.47;40.57;;;;;;;1.55;55.01;96862.88;5057940;28;20553;-68
2022/12/12 06:10:46;;;;;;;66.83;32.83;;;;;;;1.49;54.75;96858.94;5061645;28;20305;-68
2022/12/12 06:13:11;;;;;;;46.50;24.87;;;;;;;1.58;54.85;96862.63;5069439;28;20676;-70
2022/12/12 06:15:39;;;;;;;44.33;24.63;;;;;;;1.51;54.85;96863.06;5066509;28;20206;-67
2022/12/12 06:18:05;;;;;;;44.00;25.13;;;;;;;1.60;54.79;96866.78;5065133;28;20182;-69
2022/12/12 06:20:31;;;;;;;44.27;24.67;;;;;;;1.62;54.66;96870.09;5066607;28;20788;-68
2022/12/12 06:22:57;;;;;;;38.50;21.77;;;;;;;1.53;54.59;96871.53;5066273;28;20464;-69
2022/12/12 06:25:23;;;;;;;37.23;22.30;;;;;;;1.58;54.09;96873.81;5066823;28;20232;-68
2022/12/12 06:27:48;;;;;;;39.10;22.17;;;;;;;1.60;54.69;96871.09;5063892;28;20893;-70
2022/12/12 06:30:14;;;;;;;42.10;22.40;;;;;;;1.60;54.68;96873.69;5069837;28;20529;-67
2022/12/12 06:32:39;;;;;;;35.33;20.60;;;;;;;1.60;54.89;96879.69;5047173;28;20298;-69
2022/12/12 06:35:05;;;;;;;38.53;21.80;;;;;;;1.66;54.93;96875.88;5059458;28;20655;-69
2022/12/12 06:37:30;;;;;;;39.70;22.40;;;;;;;1.62;54.71;96877.84;5048218;28;20257;-69
2022/12/12 06:39:56;;;;;;;37.60;21.10;;;;;;;1.62;54.68;96884.75;5053107;28;20658;-67
2022/12/12 06:42:21;;;;;;;37.77;21.73;;;;;;;1.58;54.65;96876.38;5059865;28;20183;-70
2022/12/12 06:44:47;;;;;;;38.17;22.03;;;;;;;1.59;54.21;96875.47;5053280;28;20198;-67
2022/12/12 06:47:12;;;;;;;35.87;20.37;;;;;;;1.58;53.99;96878.97;5054418;28;20201;-69
2022/12/12 06:49:37;;;;;;;41.40;22.63;;;;;;;1.62;54.52;96877.84;5057820;28;20266;-69
2022/12/12 06:52:03;;;;;;;34.80;20.60;;;;;;;1.55;53.99;96884.34;5049755;28;20270;-70
2022/12/12 06:54:29;;;;;;;35.10;20.77;;;;;;;1.65;54.00;96885.38;5055849;28;20741;-70
2022/12/12 06:56:54;;;;;;;38.60;21.90;;;;;;;1.73;53.92;96886.63;5055420;28;20744;-70
2022/12/12 06:59:20;;;;;;;38.27;21.30;;;;;;;1.69;53.93;96886.81;5060036;28;20193;-70
2022/12/12 07:01:45;;;;;;;37.17;21.13;;;;;;;1.68;54.09;96890.31;5054938;28;20554;-70
2022/12/12 07:04:11;;;;;;;36.00;21.27;;;;;;;1.65;54.24;96895.69;5058229;28;20552;-69
2022/12/12 07:06:36;;;;;;;33.93;20.20;;;;;;;1.63;54.31;96889.84;5056180;28;20179;-68
2022/12/12 07:09:02;;;;;;;37.23;21.70;;;;;;;1.66;54.33;96889.59;5059708;28;20260;-68
2022/12/12 07:11:28;;;;;;;37.30;21.37;;;;;;;1.59;54.63;96898.72;5046942;28;20174;-67
2022/12/12 07:13:55;;;;;;;42.53;21.90;;;;;;;1.63;55.06;96902.75;5057319;28;20686;-71
2022/12/12 07:16:20;;;;;;;38.33;22.80;;;;;;;1.74;54.73;96896.84;5057726;28;20210;-70
2022/12/12 07:18:46;;;;;;;36.10;22.03;;;;;;;1.81;54.54;96899.81;5058384;28;20422;-70
2022/12/12 07:21:14;;;;;;;50.97;28.63;;;;;;;1.63;54.73;96892.41;5061771;28;20716;-67
2022/12/12 07:23:40;;;;;;;47.27;28.60;;;;;;;1.77;55.15;96903.53;5056986;28;20286;-69
2022/12/12 07:26:08;;;;;;;39.60;23.10;;;;;;;1.65;54.92;96907.81;5066987;28;20945;-70
2022/12/12 07:28:33;;;;;;;42.13;22.23;;;;;;;1.78;55.08;96910.38;5052972;28;20213;-71
2022/12/12 07:31:00;;;;;;;39.50;23.53;;;;;;;1.82;54.53;96906.66;5058547;28;20417;-70
2022/12/12 07:33:25;;;;;;;39.13;21.70;;;;;;;1.81;54.62;96912.75;5054431;28;20218;-71
2022/12/12 07:35:50;;;;;;;40.47;21.77;;;;;;;1.78;54.58;96913.78;5052167;28;20932;-68
2022/12/12 07:38:16;;;;;;;40.60;23.03;;;;;;;1.58;54.54;96916.88;5048640;28;20286;-69
2022/12/12 07:40:41;;;;;;;37.00;21.00;;;;;;;1.53;54.68;96923.19;5056640;28;20278;-68
2022/12/12 07:43:07;;;;;;;37.77;21.60;;;;;;;1.57;54.62;96923.00;5052024;28;20245;-69
2022/12/12 07:45:32;;;;;;;40.53;22.47;;;;;;;1.49;54.62;96924.31;5057966;28;20206;-69
2022/12/12 07:47:58;;;;;;;40.83;22.30;;;;;;;1.53;54.54;96933.53;5059554;28;20224;-70
2022/12/12 07:50:23;;;;;;;34.70;21.13;;;;;;;1.54;54.93;96926.59;5059509;28;20270;-69
2022/12/12 07:52:49;;;;;;;38.63;21.30;;;;;;;1.55;54.59;96930.03;5052774;28;20719;-70
2022/12/12 07:55:14;;;;;;;40.87;22.10;;;;;;;1.36;54.93;96926.06;5054283;28;20657;-68
2022/12/12 07:57:40;;;;;;;36.00;19.03;;;;;;;1.57;58.70;96926.41;5061580;28;20641;-68
2022/12/12 08:00:07;;;;;;;36.67;15.80;;;;;;;2.37;68.13;96929.63;5055825;28;20198;-69
2022/12/12 08:02:32;;;;;;;38.13;22.87;;;;;;;3.14;66.46;96928.47;5057777;28;20183;-70
2022/12/12 08:04:58;;;;;;;38.43;22.17;;;;;;;3.65;58.19;96919.53;5065327;28;20776;-68
2022/12/12 08:07:23;;;;;;;38.30;22.40;;;;;;;4.17;59.90;96927.69;5056359;28;20179;-69
2022/12/12 08:09:49;;;;;;;36.20;21.37;;;;;;;4.55;57.40;96934.22;5062506;28;20216;-68
2022/12/12 08:12:14;;;;;;;37.83;22.27;;;;;;;4.98;55.29;96929.16;5054793;28;20187;-69
2022/12/12 08:14:40;;;;;;;33.30;21.20;;;;;;;5.22;52.72;96936.72;5056920;28;20281;-70
2022/12/12 08:17:05;;;;;;;33.07;20.10;;;;;;;5.59;51.77;96931.09;5054611;28;20619;-70
2022/12/12 08:19:31;;;;;;;34.63;21.87;;;;;;;6.06;48.25;96938.50;5057194;28;20179;-71
2022/12/12 08:21:56;;;;;;;37.80;20.03;;;;;;;6.24;47.87;96938.69;5054654;28;20183;-70
2022/12/12 08:24:22;;;;;;;36.70;23.37;;;;;;;5.37;44.71;96945.88;5054253;28;20211;-72
2022/12/12 08:26:49;;;;;;;32.77;20.60;;;;;;;4.68;46.02;96946.25;5068890;28;20552;-72
2022/12/12 08:29:14;;;;;;;33.20;21.13;;;;;;;4.36;47.34;96945.22;5055081;28;20785;-72
2022/12/12 08:31:39;;;;;;;38.80;22.50;;;;;;;3.92;47.11;96952.06;5061704;28;20428;-72
2022/12/12 08:34:05;;;;;;;36.50;22.17;;;;;;;3.61;48.21;96954.38;5056989;28;20214;-71
2022/12/12 08:36:33;;;;;;;39.03;23.50;;;;;;;3.20;48.84;96953.94;5058133;28;20202;-71
2022/12/12 08:39:11;;;;;;;40.53;22.37;;;;;;;3.16;49.46;96960.25;5056073;28;20185;-72
2022/12/12 08:41:38;;;;;;;36.30;21.77;;;;;;;2.70;49.89;96954.88;5054886;28;20417;-71
2022/12/12 08:44:04;;;;;;;34.80;21.03;;;;;;;2.74;50.74;96958.06;5063040;28;20823;-71
2022/12/12 08:46:30;;;;;;;35.57;20.80;;;;;;;2.86;50.45;96958.94;5054461;28;20448;-72
2022/12/12 08:48:55;;;;;;;35.83;20.90;;;;;;;2.70;50.71;96964.38;5056559;28;20426;-72
2022/12/12 08:51:21;;;;;;;39.13;22.27;;;;;;;2.71;51.13;96963.47;5053447;28;20198;-72
2022/12/12 08:53:48;;;;;;;37.70;20.90;;;;;;;2.94;50.71;96963.56;5053618;28;20210;-69
2022/12/12 08:56:15;;;;;;;35.27;21.07;;;;;;;2.95;50.56;96968.66;5058829;28;20760;-71
2022/12/12 08:58:40;;;;;;;37.80;21.57;;;;;;;2.99;50.52;96959.72;5057538;28;20952;-73
2022/12/12 09:01:17;;;;;;;34.50;20.57;;;;;;;2.82;51.02;96958.34;5052155;28;20426;-71
2022/12/12 09:03:43;;;;;;;39.50;21.80;;;;;;;2.84;50.90;96963.41;5058405;28;20281;-72
2022/12/12 09:06:09;;;;;;;34.37;20.47;;;;;;;2.94;51.23;96973.94;5053583;28;20500;-72
2022/12/12 09:08:35;;;;;;;40.93;21.50;;;;;;;2.99;50.84;96964.06;5051346;28;20179;-70
2022/12/12 09:11:01;;;;;;;36.20;21.67;;;;;;;3.10;51.33;96966.72;5065630;28;20435;-72
2022/12/12 09:13:26;;;;;;;35.97;21.30;;;;;;;3.06;50.92;96975.63;5062502;28;20449;-72
2022/12/12 09:15:52;;;;;;;33.13;19.73;;;;;;;3.07;50.85;96972.09;5054157;28;20244;-71
2022/12/12 09:18:19;;;;;;;36.17;21.60;;;;;;;3.07;50.10;96974.69;5055295;28;20599;-72
2022/12/12 09:20:52;;;;;;;35.10;19.80;;;;;;;3.10;50.62;96982.25;5051561;28;20282;-71
2022/12/12 09:23:18;;;;;;;35.50;21.27;;;;;;;2.99;50.35;96982.19;5051010;28;20492;-72
2022/12/12 09:25:44;;;;;;;32.20;20.80;;;;;;;2.99;50.81;96992.56;5058869;28;20991;-72
2022/12/12 09:28:10;;;;;;;35.90;20.93;;;;;;;3.04;50.75;96987.84;5055733;28;20512;-72
2022/12/12 09:30:36;;;;;;;34.97;21.40;;;;;;;2.87;51.26;96987.31;5055445;28;20270;-71
2022/12/12 09:33:02;;;;;;;33.27;20.60;;;;;;;2.86;51.35;96990.84;5060124;28;20882;-70
2022/12/12 09:35:27;;;;;;;36.50;19.50;;;;;;;2.89;50.76;96993.22;5055475;28;20509;-71
2022/12/12 09:37:53;;;;;;;34.07;20.37;;;;;;;2.88;51.12;96988.97;5057965;28;20274;-70
2022/12/12 09:40:29;;;;;;;37.07;19.87;;;;;;;2.92;50.57;96987.00;5055305;28;20718;-72
2022/12/12 09:42:55;;;;;;;31.80;18.57;;;;;;;2.93;50.51;96986.06;5058091;28;20198;-70
2022/12/12 09:45:20;;;;;;;35.73;19.70;;;;;;;2.95;50.71;96988.53;5052214;28;20428;-72
2022/12/12 09:47:49;;;;;;;31.77;18.60;;;;;;;2.80;50.82;96986.09;5055475;28;20179;-72
2022/12/12 09:50:28;;;;;;;33.77;20.37;;;;;;;2.80;51.15;96978.31;5060717;28;20190;-71
2022/12/12 09:52:55;;;;;;;30.63;18.97;;;;;;;2.80;51.44;96982.69;5054474;28;20528;-71
2022/12/12 09:55:40;;;;;;;33.97;19.27;;;;;;;2.94;51.05;96986.88;5057934;28;20453;-71
2022/12/12 09:58:29;;;;;;;29.67;18.60;;;;;;;2.85;51.10;96978.84;5057089;28;20429;-71
2022/12/12 10:01:17;;;;;;;30.77;18.90;;;;;;;2.96;51.18;96974.66;5053686;28;20471;-71
2022/12/12 10:03:43;;;;;;;33.73;19.03;;;;;;;2.92;51.12;96969.69;5044133;28;20437;-71
2022/12/12 10:06:10;;;;;;;31.83;18.90;;;;;;;3.00;50.94;96970.91;5054772;28;20465;-71
2022/12/12 10:09:00;;;;;;;35.20;20.30;;;;;;;2.95;51.30;96979.00;5060724;28;20186;-71
2022/12/12 10:11:50;;;;;;;30.40;17.30;;;;;;;3.16;51.41;96976.63;5059682;28;20528;-73
2022/12/12 10:14:30;;;;;;;30.10;17.90;;;;;;;3.13;50.93;96969.09;5055318;28;20437;-71
2022/12/12 10:16:57;;;;;;;37.60;18.20;;;;;;;3.12;50.81;96976.94;5046305;28;20465;-71
2022/12/12 10:19:29;;;;;;;33.03;18.20;;;;;;;3.23;51.18;96967.47;5054545;28;20430;-71
2022/12/12 10:21:57;;;;;;;32.90;18.37;;;;;;;3.25;50.43;96969.13;5055514;28;20528;-70
2022/12/12 10:24:29;;;;;;;28.80;18.00;;;;;;;3.27;51.08;96972.44;5044703;28;20831;-71
2022/12/12 10:26:56;;;;;;;29.83;18.10;;;;;;;3.42;50.72;96971.28;5053745;28;20448;-71
2022/12/12 10:29:24;;;;;;;36.60;18.10;;;;;;;3.52;50.06;96967.09;5051564;28;20850;-71
2022/12/12 10:31:59;;;;;;;27.60;17.10;;;;;;;3.65;50.73;96968.78;5048867;28;20430;-71
2022/12/12 10:34:50;;;;;;;32.77;18.63;;;;;;;3.73;49.16;96969.03;5051844;28;20728;-72
2022/12/12 10:37:46;;;;;;;29.23;17.23;;;;;;;3.88;49.25;96966.22;5054360;28;20503;-72
2022/12/12 10:40:40;;;;;;;28.67;17.70;;;;;;;4.00;48.60;96970.47;5055262;28;20436;-72
2022/12/12 10:43:13;;;;;;;28.13;16.97;;;;;;;4.24;48.58;96961.75;5049214;28;20872;-70
2022/12/12 10:46:11;;;;;;;29.93;17.70;;;;;;;4.96;47.56;96967.41;5058649;28;21140;-72
2022/12/12 10:48:38;;;;;;;29.20;17.87;;;;;;;5.47;45.99;96960.69;5000842;28;20429;-70
2022/12/12 10:51:06;;;;;;;33.30;17.87;;;;;;;5.43;45.12;96964.50;5056193;28;20767;-70
2022/12/12 10:53:32;;;;;;;27.90;16.83;;;;;;;5.53;44.54;96957.63;5060378;28;20540;-71
2022/12/12 10:56:02;;;;;;;24.93;16.13;;;;;;;5.62;44.47;96956.84;5061283;28;20460;-72
2022/12/12 10:58:36;;;;;;;28.40;17.90;;;;;;;5.92;43.77;96955.22;5061721;28;20441;-71
2022/12/12 11:01:04;;;;;;;32.77;15.97;;;;;;;6.08;43.27;96956.56;5059853;28;20417;-71
2022/12/12 11:03:41;;;;;;;30.17;18.20;;;;;;;6.25;42.97;96949.91;5059434;28;20521;-70
2022/12/12 11:06:12;;;;;;;31.00;17.30;;;;;;;6.47;43.05;96951.50;5053339;28;20413;-71
2022/12/12 11:08:37;;;;;;;28.43;17.07;;;;;;;6.91;42.61;96949.41;5058241;28;20425;-70
2022/12/12 11:11:07;;;;;;;27.87;17.80;;;;;;;7.22;40.95;96948.47;5062910;28;21103;-71
2022/12/12 11:13:44;;;;;;;32.77;18.20;;;;;;;7.88;40.54;96943.44;5053248;28;20242;-72
2022/12/12 11:16:18;;;;;;;28.93;17.30;;;;;;;8.01;38.96;96938.72;5057807;28;20816;-71
2022/12/12 11:19:17;;;;;;;28.03;17.03;;;;;;;7.90;38.85;96938.91;5057933;28;20422;-72
2022/12/12 11:21:43;;;;;;;22.87;14.13;;;;;;;8.25;37.31;96929.56;5025295;28;20437;-73
2022/12/12 11:24:17;;;;;;;21.50;13.73;;;;;;;8.46;36.96;96942.38;5056854;28;20560;-72
2022/12/12 11:26:50;;;;;;;21.50;13.07;;;;;;;8.57;35.65;96938.75;5059338;28;20975;-73
2022/12/12 11:29:34;;;;;;;23.27;12.77;;;;;;;8.87;34.97;96936.81;5055903;28;20980;-71
2022/12/12 11:32:01;;;;;;;21.13;12.90;;;;;;;9.36;35.56;96928.59;5055846;28;20401;-71
2022/12/12 11:34:27;;;;;;;20.63;13.13;;;;;;;9.58;33.76;96922.03;5052259;28;20449;-72
2022/12/12 11:36:52;;;;;;;17.23;11.93;;;;;;;9.61;33.76;96916.50;5064925;28;20457;-71
2022/12/12 11:39:32;;;;;;;21.50;11.87;;;;;;;9.57;33.31;96915.19;5037658;28;20187;-71
2022/12/12 11:42:28;;;;;;;20.40;11.17;;;;;;;9.75;32.40;96916.91;5065006;28;20197;-71
2022/12/12 11:45:19;;;;;;;17.03;10.40;;;;;;;9.79;32.20;96907.78;5047106;28;20487;-72
2022/12/12 11:47:46;;;;;;;18.70;11.70;;;;;;;9.64;32.74;96910.97;5046199;28;20441;-72
2022/12/12 11:50:29;;;;;;;15.90;10.40;;;;;;;9.80;32.18;96909.44;5053984;28;20845;-73
2022/12/12 11:52:58;;;;;;;18.17;10.73;;;;;;;10.01;31.53;96911.69;5051507;28;20516;-72